createdAt,value
2022-08-09T00:02:57.804Z,14.74
2022-08-09T00:08:01.442Z,14.67
2022-08-09T00:13:06.705Z,14.73
2022-08-09T00:18:22.157Z,14.44
2022-08-09T00:23:55.553Z,14.48
2022-08-09T00:28:52.181Z,14.33
2022-08-09T00:33:57.841Z,14.35
2022-08-09T00:39:01.016Z,14.30
2022-08-09T00:44:10.446Z,14.24
2022-08-09T00:49:25.096Z,14.16
2022-08-09T00:54:35.251Z,14.02
2022-08-09T00:59:46.594Z,14.04
2022-08-09T01:05:03.257Z,13.89
2022-08-09T01:10:17.073Z,13.86
2022-08-09T01:15:25.486Z,13.76
2022-08-09T01:20:41.188Z,13.75
2022-08-09T01:26:02.043Z,13.68
2022-08-09T01:31:11.196Z,13.52
2022-08-09T01:36:35.962Z,13.59
2022-08-09T01:41:53.563Z,13.48
2022-08-09T01:47:03.028Z,13.52
2022-08-09T01:52:10.269Z,13.54
2022-08-09T01:57:16.658Z,13.44
2022-08-09T02:02:23.917Z,13.30
2022-08-09T02:08:39.693Z,13.13
2022-08-09T02:13:04.168Z,13.07
2022-08-09T02:18:10.940Z,12.87
2022-08-09T02:23:18.454Z,12.95
2022-08-09T02:28:26.264Z,13.02
2022-08-09T02:33:38.443Z,12.94
2022-08-09T02:39:04.173Z,12.95
2022-08-09T02:44:28.981Z,12.84
2022-08-09T02:49:41.420Z,12.77
2022-08-09T02:54:54.265Z,12.67
2022-08-09T03:00:21.195Z,12.61
2022-08-09T03:05:26.983Z,12.55
2022-08-09T03:10:31.051Z,12.53
2022-08-09T03:16:04.547Z,12.48
2022-08-09T03:21:00.544Z,12.45
2022-08-09T03:26:05.118Z,12.41
2022-08-09T03:31:10.339Z,12.33
2022-08-09T03:36:28.134Z,12.32
2022-08-09T03:41:46.036Z,12.30
2022-08-09T03:46:52.013Z,12.26
2022-08-09T03:52:00.082Z,12.26
2022-08-09T03:57:18.638Z,12.32
2022-08-09T04:02:27.604Z,12.35
2022-08-09T04:07:51.135Z,12.40
2022-08-09T04:12:55.915Z,12.41
2022-08-09T04:18:00.736Z,12.51
2022-08-09T04:23:09.767Z,12.54
2022-08-09T04:28:13.147Z,12.62
2022-08-09T04:33:16.117Z,12.88
2022-08-09T04:38:20.493Z,14.21
2022-08-09T04:43:25.276Z,15.48
2022-08-09T04:48:33.396Z,16.40
2022-08-09T04:53:38.297Z,16.76
2022-08-09T04:58:42.422Z,16.41
2022-08-09T05:03:45.538Z,15.99
2022-08-09T05:08:52.568Z,16.12
2022-08-09T05:14:05.942Z,16.31
2022-08-09T05:19:09.267Z,16.36
2022-08-09T05:24:13.706Z,16.65
2022-08-09T05:29:21.648Z,16.12
2022-08-09T05:34:30.678Z,16.30
2022-08-09T05:39:42.542Z,16.60
2022-08-09T05:44:47.717Z,16.27
2022-08-09T05:50:24.349Z,16.27
2022-08-09T05:55:21.195Z,16.92
2022-08-09T06:00:25.068Z,16.84
2022-08-09T06:05:49.758Z,17.61
2022-08-09T06:10:55.132Z,18.54
2022-08-09T06:15:58.137Z,19.69
2022-08-09T06:21:06.503Z,20.07
2022-08-09T06:26:10.948Z,19.76
2022-08-09T06:31:14.000Z,20.38
2022-08-09T06:36:17.006Z,20.63
2022-08-09T06:41:23.375Z,21.49
2022-08-09T06:46:48.196Z,21.99
2022-08-09T06:51:52.848Z,22.06
2022-08-09T06:56:57.303Z,22.60
2022-08-09T07:02:03.533Z,22.67
2022-08-09T07:07:07.563Z,22.14
2022-08-09T07:12:17.847Z,23.23
2022-08-09T07:17:21.980Z,23.49
2022-08-09T07:22:34.396Z,24.30
2022-08-09T07:27:42.966Z,24.09
2022-08-09T07:32:56.079Z,23.84
2022-08-09T07:37:59.217Z,23.69
2022-08-09T07:43:14.769Z,22.54
2022-08-09T07:48:25.776Z,21.88
2022-08-09T07:54:01.652Z,23.24
2022-08-09T07:58:59.860Z,21.86
2022-08-09T08:04:03.888Z,22.22
2022-08-09T08:09:18.321Z,23.33
2022-08-09T08:14:38.400Z,22.82
2022-08-09T08:19:41.535Z,23.44
2022-08-09T08:24:49.336Z,25.44
2022-08-09T08:29:56.396Z,24.86
2022-08-09T08:35:00.120Z,26.33
2022-08-09T08:40:03.329Z,25.39
2022-08-09T08:45:11.825Z,23.97
2022-08-09T08:50:19.926Z,25.24
2022-08-09T08:55:24.508Z,26.03
2022-08-09T09:00:34.366Z,24.67
2022-08-09T09:06:00.833Z,26.09
2022-08-09T09:11:04.136Z,26.73
2022-08-09T09:16:09.532Z,27.99
2022-08-09T09:21:14.847Z,26.56
2022-08-09T09:26:18.575Z,26.27
2022-08-09T09:32:05.887Z,25.00
2022-08-09T09:36:54.086Z,25.35
2022-08-09T09:41:59.105Z,27.64
2022-08-09T09:47:09.620Z,27.15
2022-08-09T09:52:16.736Z,27.28
2022-08-09T09:58:02.226Z,28.46
2022-08-09T10:03:09.098Z,27.76
2022-08-09T10:08:28.031Z,25.99
2022-08-09T10:13:45.137Z,25.61
2022-08-09T10:18:56.399Z,27.66
2022-08-09T10:24:05.116Z,27.92
2022-08-09T10:29:38.039Z,29.50
2022-08-09T10:34:35.842Z,27.55
2022-08-09T10:39:49.116Z,27.26
2022-08-09T10:44:59.462Z,25.75
2022-08-09T10:50:16.361Z,25.37
2022-08-09T10:55:25.687Z,25.11
2022-08-09T11:00:56.856Z,25.51
2022-08-09T11:06:24.548Z,25.60
2022-08-09T11:12:07.003Z,25.26
2022-08-09T11:17:53.735Z,25.45
2022-08-09T11:23:10.347Z,28.32
2022-08-09T11:28:54.688Z,28.76
2022-08-09T11:34:05.070Z,29.06
2022-08-09T11:39:12.155Z,27.75
2022-08-09T11:44:16.115Z,26.31
2022-08-09T11:49:28.047Z,27.08
2022-08-09T11:54:34.697Z,26.23
2022-08-09T11:59:38.220Z,26.65
2022-08-09T12:04:41.820Z,27.86
2022-08-09T12:09:50.577Z,27.96
2022-08-09T12:15:08.008Z,26.42
2022-08-09T12:20:19.832Z,26.63
2022-08-09T12:25:35.644Z,26.14
2022-08-09T12:30:42.104Z,25.51
2022-08-09T12:35:47.918Z,27.59
2022-08-09T12:40:55.012Z,27.95
2022-08-09T12:46:00.621Z,26.22
2022-08-09T12:51:04.525Z,26.96
2022-08-09T12:56:37.114Z,26.15
2022-08-09T13:01:47.087Z,26.15
2022-08-09T13:06:54.161Z,26.70
2022-08-09T13:12:03.052Z,26.28
2022-08-09T13:17:08.667Z,26.81
2022-08-09T13:22:37.280Z,26.64
2022-08-09T13:27:48.914Z,25.74
2022-08-09T13:32:58.699Z,26.06
2022-08-09T13:38:03.484Z,26.74
2022-08-09T13:43:10.279Z,27.47
2022-08-09T13:48:18.576Z,28.68
2022-08-09T13:53:21.745Z,27.63
2022-08-09T13:58:45.070Z,28.13
2022-08-09T14:04:02.404Z,27.21
2022-08-09T14:09:09.230Z,26.66
2022-08-09T14:14:23.377Z,26.34
2022-08-09T14:19:33.284Z,26.41
2022-08-09T14:24:36.651Z,26.14
2022-08-09T14:30:35.287Z,26.63
2022-08-09T14:35:14.415Z,25.80
2022-08-09T14:40:18.526Z,26.19
2022-08-09T14:46:55.884Z,25.80
2022-08-09T14:51:06.473Z,25.91
2022-08-09T14:56:13.247Z,26.22
2022-08-09T15:01:17.861Z,26.00
2022-08-09T15:06:23.702Z,26.20
2022-08-09T15:11:28.734Z,25.56
2022-08-09T15:16:34.135Z,26.23
2022-08-09T15:21:54.982Z,26.28
2022-08-09T15:27:00.804Z,27.00
2022-08-09T15:32:05.949Z,26.94
2022-08-09T15:37:56.869Z,26.34
2022-08-09T15:43:02.630Z,27.26
2022-08-09T15:48:28.413Z,27.70
2022-08-09T15:54:05.213Z,27.06
2022-08-09T15:58:54.537Z,27.02
2022-08-09T16:03:58.875Z,26.58
2022-08-09T16:09:03.343Z,26.31
2022-08-09T16:14:08.459Z,25.98
2022-08-09T16:19:14.683Z,26.00
2022-08-09T16:24:33.753Z,25.62
2022-08-09T16:29:49.934Z,25.45
2022-08-09T16:34:59.510Z,25.56
2022-08-09T16:40:06.838Z,25.55
2022-08-09T16:45:10.684Z,25.62
2022-08-09T16:50:29.656Z,25.82
2022-08-09T16:55:58.254Z,25.95
2022-08-09T17:00:57.158Z,26.30
2022-08-09T17:06:08.264Z,25.29
2022-08-09T17:11:41.302Z,25.42
2022-08-09T17:16:45.560Z,24.99
2022-08-09T17:21:55.476Z,24.83
2022-08-09T17:26:58.963Z,24.90
2022-08-09T17:32:02.174Z,24.96
2022-08-09T17:37:07.539Z,24.90
2022-08-09T17:42:51.425Z,24.42
2022-08-09T17:47:49.690Z,24.67
2022-08-09T17:52:59.420Z,24.68
2022-08-09T17:58:05.490Z,24.35
2022-08-09T18:03:12.035Z,24.30
2022-08-09T18:08:16.838Z,24.25
2022-08-09T18:13:53.529Z,24.22
2022-08-09T18:18:49.084Z,24.21
2022-08-09T18:24:10.522Z,24.06
2022-08-09T18:30:41.837Z,23.80
2022-08-09T18:34:39.740Z,23.44
2022-08-09T18:39:46.103Z,23.30
2022-08-09T18:44:51.609Z,23.24
2022-08-09T18:49:56.094Z,23.04
2022-08-09T18:55:13.872Z,22.95
2022-08-09T19:00:20.314Z,22.81
2022-08-09T19:05:41.394Z,22.78
2022-08-09T19:10:48.772Z,22.57
2022-08-09T19:15:56.332Z,22.43
2022-08-09T19:21:00.743Z,22.21
2022-08-09T19:26:07.141Z,22.16
2022-08-09T19:31:14.913Z,21.95
2022-08-09T19:36:23.263Z,21.86
2022-08-09T19:41:35.861Z,21.64
2022-08-09T19:46:50.515Z,21.57
2022-08-09T19:51:57.027Z,21.40
2022-08-09T19:57:01.659Z,21.19
2022-08-09T20:03:23.876Z,21.02
2022-08-09T20:07:33.900Z,20.95
2022-08-09T20:12:53.879Z,20.71
2022-08-09T20:17:59.571Z,20.67
2022-08-09T20:23:02.706Z,20.53
2022-08-09T20:28:07.240Z,20.48
2022-08-09T20:33:15.946Z,20.41
2022-08-09T20:38:33.110Z,20.33
2022-08-09T20:43:44.680Z,20.12
2022-08-09T20:48:48.045Z,19.88
2022-08-09T20:53:51.205Z,19.89
2022-08-09T20:58:58.645Z,19.76
2022-08-09T21:04:08.346Z,19.59
2022-08-09T21:09:41.673Z,19.51
2022-08-09T21:14:49.712Z,19.38
2022-08-09T21:20:17.244Z,19.27
2022-08-09T21:25:44.161Z,19.08
2022-08-09T21:31:00.980Z,19.01
2022-08-09T21:36:23.261Z,18.90
2022-08-09T21:42:05.854Z,18.66
2022-08-09T21:46:56.527Z,18.55
2022-08-09T21:52:05.913Z,18.45
2022-08-09T21:57:37.184Z,18.39
2022-08-09T22:02:43.115Z,18.18
2022-08-09T22:07:51.799Z,18.02
2022-08-09T22:12:55.790Z,17.87
2022-08-09T22:18:00.197Z,17.85
2022-08-09T22:23:04.808Z,17.81
2022-08-09T22:28:08.031Z,17.74
2022-08-09T22:33:12.420Z,17.49
2022-08-09T22:38:20.581Z,17.44
2022-08-09T22:44:01.845Z,17.51
2022-08-09T22:48:50.512Z,17.36
2022-08-09T22:54:02.953Z,17.14
2022-08-09T22:59:57.857Z,17.04
2022-08-09T23:04:32.739Z,16.91
2022-08-09T23:09:36.176Z,16.84
2022-08-09T23:14:42.237Z,16.71
2022-08-09T23:20:06.260Z,16.69
2022-08-09T23:25:10.979Z,16.46
2022-08-09T23:30:14.307Z,16.13
2022-08-09T23:35:18.788Z,16.17
2022-08-09T23:40:21.908Z,16.25
2022-08-09T23:45:36.994Z,16.25
2022-08-09T23:50:42.932Z,16.13
2022-08-09T23:55:49.447Z,16.08
